Time;durP1;ratioP1;P1;durP2;ratioP2;P2;SDS_P1;SDS_P2;PMS_P1;PMS_P2;Temp;Humidity;BMP_temperature;BMP_pressure;BME280_temperature;BME280_humidity;BME280_pressure;Samples;Min_cycle;Max_cycle;Signal;HPM_P1;HPM_P2
2021/07/27 00:01:09;;;;;;;29.33;13.23;;;20.10;92.80;;;;;;5032720;28;20026;-79
2021/07/27 00:03:37;;;;;;;28.88;12.50;;;20.00;92.90;;;;;;5032005;28;20020;-79
2021/07/27 00:06:04;;;;;;;25.00;11.82;;;20.00;92.90;;;;;;5034001;28;20523;-78
2021/07/27 00:08:30;;;;;;;27.73;13.25;;;20.00;92.90;;;;;;5033381;28;20036;-79
2021/07/27 00:10:55;;;;;;;29.15;13.05;;;20.00;92.90;;;;;;5033875;28;20029;-79
2021/07/27 00:13:21;;;;;;;26.65;12.57;;;20.00;93.00;;;;;;5031981;28;20132;-79
2021/07/27 00:15:47;;;;;;;30.63;13.13;;;19.90;92.90;;;;;;5033823;28;20376;-79
2021/07/27 00:18:12;;;;;;;29.70;13.70;;;20.00;93.00;;;;;;5032501;28;20040;-79
2021/07/27 00:20:38;;;;;;;30.48;14.10;;;19.90;93.10;;;;;;5033006;28;20424;-79
2021/07/27 00:23:04;;;;;;;32.40;14.00;;;19.90;93.10;;;;;;5033308;28;20059;-79
2021/07/27 00:25:30;;;;;;;27.77;13.77;;;19.90;93.10;;;;;;5031534;28;20446;-79
2021/07/27 00:27:56;;;;;;;28.15;13.00;;;19.90;93.30;;;;;;5032109;28;20426;-78
2021/07/27 00:30:21;;;;;;;28.15;13.70;;;19.90;93.30;;;;;;5032598;28;20044;-78
2021/07/27 00:32:47;;;;;;;35.13;14.43;;;19.90;93.40;;;;;;5033146;28;20092;-79
2021/07/27 00:35:13;;;;;;;29.45;13.65;;;19.90;93.40;;;;;;5032084;28;20454;-79
2021/07/27 00:37:43;;;;;;;34.92;15.35;;;19.90;93.50;;;;;;5032811;28;20049;-79
2021/07/27 00:40:09;;;;;;;28.58;13.65;;;19.90;93.40;;;;;;5033652;28;20022;-79
2021/07/27 00:42:43;;;;;;;28.30;12.70;;;19.90;93.50;;;;;;5032095;28;20220;-79
2021/07/27 00:45:09;;;;;;;28.83;13.27;;;19.90;93.50;;;;;;5031658;28;20033;-78
2021/07/27 00:47:35;;;;;;;27.95;12.68;;;19.90;93.40;;;;;;5031208;28;20033;-79
2021/07/27 00:50:00;;;;;;;31.80;14.73;;;20.00;93.40;;;;;;5031777;28;20017;-79
2021/07/27 00:52:26;;;;;;;26.25;13.50;;;20.00;93.30;;;;;;5030960;28;20527;-78
2021/07/27 00:54:52;;;;;;;28.02;14.60;;;20.00;93.30;;;;;;5031924;28;20120;-79
2021/07/27 00:57:17;;;;;;;32.88;13.98;;;20.00;93.30;;;;;;5030659;28;20036;-79
2021/07/27 00:59:44;;;;;;;31.55;13.95;;;19.90;93.20;;;;;;5032073;28;20061;-79
2021/07/27 01:02:10;;;;;;;30.63;14.70;;;20.00;93.30;;;;;;5031587;28;20338;-78
2021/07/27 01:04:35;;;;;;;30.65;15.25;;;20.00;93.20;;;;;;5030822;28;20446;-79
2021/07/27 01:07:01;;;;;;;34.13;16.17;;;19.90;93.20;;;;;;5032458;28;20096;-79
2021/07/27 01:09:28;;;;;;;32.55;15.35;;;19.90;93.20;;;;;;5032098;28;20468;-78
2021/07/27 01:11:59;;;;;;;35.45;15.85;;;19.90;93.20;;;;;;5031358;28;20018;-78
2021/07/27 01:14:25;;;;;;;37.13;15.93;;;19.90;93.30;;;;;;5032101;28;20116;-79
2021/07/27 01:16:51;;;;;;;39.25;17.38;;;19.90;93.30;;;;;;5031378;28;20104;-79
2021/07/27 01:40:58;;;;;;;38.15;16.05;;;19.90;93.00;;;;;;5032295;28;20512;-78
2021/07/27 01:43:29;;;;;;;38.40;17.13;;;19.90;93.00;;;;;;5031758;28;20064;-78
2021/07/27 01:45:54;;;;;;;;;;;19.90;93.00;;;;;;5031321;28;20017;-78
2021/07/27 01:48:26;;;;;;;36.40;15.88;;;19.80;92.90;;;;;;5030358;28;19901;-79
2021/07/27 01:50:52;;;;;;;30.30;15.40;;;19.80;92.90;;;;;;5030947;28;20047;-79
2021/07/27 01:53:26;;;;;;;38.22;16.80;;;19.80;93.00;;;;;;5032237;28;20029;-79
2021/07/27 01:55:55;;;;;;;37.38;15.05;;;19.80;93.00;;;;;;5033316;28;20096;-78
2021/07/27 01:58:21;;;;;;;37.67;16.20;;;19.80;93.00;;;;;;5034841;28;20485;-78
2021/07/27 02:00:46;;;;;;;40.00;17.92;;;19.80;93.00;;;;;;5033024;28;20045;-78
2021/07/27 02:03:15;;;;;;;34.55;16.02;;;19.80;93.00;;;;;;5032008;28;20432;-78
2021/07/27 02:05:41;;;;;;;35.33;16.77;;;19.70;92.90;;;;;;5031362;28;20292;-79
2021/07/27 02:08:07;;;;;;;34.95;16.42;;;19.70;92.90;;;;;;5031902;28;20097;-78
2021/07/27 02:10:32;;;;;;;39.13;17.02;;;19.70;92.90;;;;;;5032488;28;20243;-77
2021/07/27 02:13:02;;;;;;;32.75;15.43;;;19.60;93.00;;;;;;5036073;28;20113;-78
2021/07/27 02:15:54;;;;;;;37.10;16.65;;;19.60;93.00;;;;;;5035369;28;20017;-79
2021/07/27 02:18:23;;;;;;;33.50;15.05;;;19.70;93.00;;;;;;5033833;28;20079;-78
2021/07/27 02:20:49;;;;;;;35.42;14.73;;;19.70;92.90;;;;;;5034461;28;20432;-78
2021/07/27 02:23:15;;;;;;;33.97;15.63;;;19.70;92.90;;;;;;5030916;28;20057;-78
2021/07/27 02:25:41;;;;;;;30.92;15.20;;;19.70;92.90;;;;;;5030531;28;20029;-78
2021/07/27 02:28:11;;;;;;;33.53;16.23;;;19.70;92.90;;;;;;5016013;28;20032;-78
2021/07/27 02:30:42;;;;;;;32.55;15.00;;;19.80;92.90;;;;;;5030561;28;20041;-79
2021/07/27 02:33:08;;;;;;;37.97;18.50;;;19.70;92.80;;;;;;5031082;28;20124;-79
2021/07/27 02:35:35;;;;;;;39.15;17.10;;;19.70;92.80;;;;;;5015484;28;20105;-79
2021/07/27 02:38:01;;;;;;;39.35;19.10;;;19.70;92.80;;;;;;5030940;28;20442;-79
2021/07/27 02:40:26;;;;;;;43.95;19.45;;;19.70;92.90;;;;;;5014790;28;20096;-79
2021/07/27 02:42:52;;;;;;;34.63;16.80;;;19.60;92.90;;;;;;5030820;28;20412;-79
2021/07/27 02:45:20;;;;;;;39.35;18.17;;;19.60;93.00;;;;;;5030891;28;20508;-79
2021/07/27 02:47:46;;;;;;;42.53;19.58;;;19.60;93.00;;;;;;5014898;28;20029;-79
2021/07/27 02:50:12;;;;;;;39.35;18.17;;;19.60;93.10;;;;;;5030850;28;20072;-79
2021/07/27 02:52:42;;;;;;;41.75;18.77;;;19.60;93.00;;;;;;5029926;28;20058;-79
2021/07/27 02:55:09;;;;;;;41.60;18.95;;;19.50;93.10;;;;;;5030627;28;20108;-79
2021/07/27 02:57:35;;;;;;;34.45;15.88;;;19.50;93.10;;;;;;5029923;28;20362;-79
2021/07/27 03:00:01;;;;;;;41.83;18.58;;;19.50;93.20;;;;;;5030474;28;20041;-79
2021/07/27 03:02:36;;;;;;;37.92;16.83;;;19.40;93.20;;;;;;5029744;28;20080;-79
2021/07/27 03:05:02;;;;;;;42.03;18.58;;;19.40;93.20;;;;;;5015368;28;20029;-79
2021/07/27 03:10:23;;;;;;;44.28;19.02;;;19.30;93.20;;;;;;5014554;28;20026;-79
2021/07/27 03:12:55;;;;;;;41.03;19.67;;;19.30;93.20;;;;;;5029586;28;20357;-79
2021/07/27 03:15:23;;;;;;;44.47;19.42;;;19.30;93.30;;;;;;5015100;28;20033;-79
2021/07/27 03:17:54;;;;;;;44.63;21.00;;;19.30;93.30;;;;;;5029571;28;20108;-79
2021/07/27 03:20:20;;;;;;;43.30;19.63;;;19.30;93.30;;;;;;5030394;28;20017;-79
2021/07/27 03:22:46;;;;;;;38.40;19.13;;;19.40;93.20;;;;;;5013421;28;20263;-79
2021/07/27 03:25:15;;;;;;;36.50;17.35;;;19.40;93.10;;;;;;5014835;28;20104;-79
2021/07/27 03:27:41;;;;;;;40.72;18.77;;;19.50;93.10;;;;;;5029344;28;20021;-79
2021/07/27 03:30:08;;;;;;;38.13;18.10;;;19.50;93.00;;;;;;5030052;28;20123;-79
2021/07/27 03:32:37;;;;;;;41.70;19.10;;;19.60;93.00;;;;;;5028883;28;20167;-79
2021/07/27 03:35:05;;;;;;;43.42;20.33;;;19.60;92.90;;;;;;5030060;28;20018;-79
2021/07/27 03:37:32;;;;;;;48.78;21.33;;;19.60;92.90;;;;;;5029330;28;20096;-79
2021/07/27 03:39:58;;;;;;;37.70;18.08;;;19.60;92.90;;;;;;5014851;28;20021;-78
2021/07/27 03:42:24;;;;;;;48.42;21.90;;;19.60;92.90;;;;;;5029757;28;20331;-78
2021/07/27 03:44:54;;;;;;;42.08;19.48;;;19.60;92.80;;;;;;5013853;28;20399;-78
2021/07/27 03:47:19;;;;;;;47.40;20.60;;;19.60;92.80;;;;;;5014394;28;20022;-78
2021/07/27 03:49:45;;;;;;;40.72;17.30;;;19.60;92.80;;;;;;5028931;28;20018;-77
2021/07/27 03:52:11;;;;;;;37.60;17.55;;;19.60;92.80;;;;;;5014038;28;20026;-78
2021/07/27 03:54:36;;;;;;;36.03;17.55;;;19.60;92.80;;;;;;5028911;28;20038;-77
2021/07/27 03:57:03;;;;;;;39.85;19.73;;;19.60;92.70;;;;;;5014832;28;20025;-78
2021/07/27 03:59:33;;;;;;;40.65;18.95;;;19.60;92.70;;;;;;5025069;28;20446;-78
2021/07/27 04:02:00;;;;;;;44.33;19.55;;;19.60;93.00;;;;;;5012824;28;20025;-77
2021/07/27 04:04:26;;;;;;;39.47;18.85;;;19.50;92.70;;;;;;5029310;28;20095;-77
2021/07/27 04:06:52;;;;;;;38.20;17.88;;;19.50;92.80;;;;;;5013433;28;20026;-77
2021/07/27 04:09:18;;;;;;;37.95;18.40;;;19.50;92.80;;;;;;5014231;28;20435;-79
2021/07/27 04:11:44;;;;;;;36.80;18.50;;;19.50;92.80;;;;;;5013255;28;20073;-78
2021/07/27 04:14:10;;;;;;;34.78;17.23;;;19.40;92.80;;;;;;5016457;28;20022;-77
2021/07/27 04:16:40;;;;;;;29.70;15.93;;;19.40;92.80;;;;;;5032582;28;20017;-77
2021/07/27 04:19:06;;;;;;;33.22;16.20;;;19.50;92.80;;;;;;5031683;28;20009;-77
2021/07/27 04:21:32;;;;;;;37.85;18.27;;;19.50;92.80;;;;;;5031156;28;20025;-77
2021/07/27 04:23:59;;;;;;;30.55;16.25;;;19.40;92.80;;;;;;5030531;28;20017;-77
2021/07/27 04:26:25;;;;;;;29.77;15.85;;;19.40;92.90;;;;;;5031466;28;20481;-76
2021/07/27 04:28:51;;;;;;;32.25;16.70;;;19.40;92.90;;;;;;5031385;28;20254;-77
2021/07/27 04:31:17;;;;;;;29.23;14.80;;;19.40;92.80;;;;;;5031983;28;20025;-77
2021/07/27 04:33:43;;;;;;;31.02;15.40;;;19.40;92.80;;;;;;5031872;28;20091;-77
2021/07/27 04:36:09;;;;;;;35.08;16.50;;;19.40;92.70;;;;;;5033352;28;20105;-77
2021/07/27 04:38:35;;;;;;;27.85;14.98;;;19.50;92.70;;;;;;5032597;28;20021;-78
2021/07/27 04:41:06;;;;;;;32.38;15.38;;;19.40;92.60;;;;;;5032019;28;20421;-78
2021/07/27 04:43:33;;;;;;;28.25;15.55;;;19.40;92.60;;;;;;5031874;28;20018;-78
2021/07/27 04:45:59;;;;;;;19.00;10.60;;;19.30;92.70;;;;;;5031524;28;20018;-78
2021/07/27 04:48:25;;;;;;;28.85;14.50;;;19.30;92.80;;;;;;5034187;28;20035;-86
2021/07/27 04:50:50;;;;;;;24.83;12.88;;;19.20;92.80;;;;;;5034982;28;20135;-87
2021/07/27 04:53:22;;;;;;;25.77;13.20;;;19.20;92.80;;;;;;5031927;28;20413;-85
2021/07/27 04:55:47;;;;;;;32.45;14.70;;;19.30;92.90;;;;;;5031905;28;20052;-87
2021/07/27 04:58:13;;;;;;;27.75;13.60;;;19.20;92.80;;;;;;5031941;28;20025;-83
2021/07/27 05:00:39;;;;;;;27.08;13.23;;;19.30;92.80;;;;;;5030338;28;20045;-82
2021/07/27 05:03:04;;;;;;;29.70;14.63;;;19.30;92.80;;;;;;5029931;28;20028;-83
2021/07/27 05:05:30;;;;;;;24.90;12.93;;;19.30;92.70;;;;;;5031267;28;20246;-86
2021/07/27 05:07:58;;;;;;;28.40;13.35;;;19.40;92.70;;;;;;5030983;28;20346;-85
2021/07/27 05:10:24;;;;;;;27.67;13.20;;;19.40;92.70;;;;;;5029744;28;20028;-84
2021/07/27 05:12:49;;;;;;;26.60;12.75;;;19.40;92.70;;;;;;5030114;28;20029;-85
2021/07/27 05:15:15;;;;;;;26.92;13.75;;;19.40;92.60;;;;;;5030471;28;20025;-85
2021/07/27 05:17:44;;;;;;;23.25;11.95;;;19.40;92.60;;;;;;5030532;28;20033;-84
2021/07/27 05:20:11;;;;;;;23.45;12.18;;;19.40;92.60;;;;;;5031056;28;20025;-86
2021/07/27 05:22:37;;;;;;;29.05;12.98;;;19.40;92.50;;;;;;5031132;28;20465;-88
2021/07/27 05:25:03;;;;;;;23.45;12.02;;;19.40;92.50;;;;;;5031727;28;20506;-86
2021/07/27 05:27:33;;;;;;;22.45;11.35;;;19.40;92.50;;;;;;5029265;28;20021;-85
2021/07/27 05:29:59;;;;;;;21.38;10.27;;;19.40;92.50;;;;;;5030104;28;20026;-85
2021/07/27 05:32:25;;;;;;;24.20;11.65;;;19.40;92.40;;;;;;5013141;28;20434;-84
2021/07/27 05:34:51;;;;;;;23.42;12.50;;;19.30;92.40;;;;;;5010289;28;20451;-84
2021/07/27 05:37:17;;;;;;;23.08;11.90;;;19.30;92.40;;;;;;5026062;28;20113;-85
2021/07/27 05:39:43;;;;;;;25.25;12.20;;;19.30;92.40;;;;;;5024811;28;20478;-83
2021/07/27 05:42:09;;;;;;;23.65;12.00;;;19.20;92.20;;;;;;5010585;28;20034;-75
2021/07/27 05:44:35;;;;;;;27.20;13.00;;;19.20;92.20;;;;;;5026915;28;20024;-78
2021/07/27 05:47:01;;;;;;;19.98;10.52;;;19.20;92.10;;;;;;5010623;28;20030;-78
2021/07/27 05:49:27;;;;;;;23.50;12.32;;;19.20;92.20;;;;;;5027683;28;20026;-79
2021/07/27 05:51:53;;;;;;;19.50;9.63;;;19.20;92.20;;;;;;5010201;28;20212;-78
2021/07/27 05:54:20;;;;;;;22.58;11.73;;;19.20;92.50;;;;;;5012450;28;20026;-78
2021/07/27 05:56:47;;;;;;;24.45;11.55;;;19.20;92.30;;;;;;5011513;28;20030;-78
2021/07/27 05:59:14;;;;;;;18.67;9.77;;;19.30;92.30;;;;;;5011891;28;20382;-78
2021/07/27 06:01:40;;;;;;;26.25;11.73;;;19.30;92.20;;;;;;5026767;28;20030;-78
2021/07/27 06:04:05;;;;;;;24.67;12.40;;;19.30;92.00;;;;;;5012162;28;20359;-78
2021/07/27 06:06:34;;;;;;;20.70;10.63;;;19.30;92.00;;;;;;5027319;28;20060;-78
2021/07/27 06:09:06;;;;;;;22.50;11.82;;;19.30;92.00;;;;;;5011403;28;20075;-78
2021/07/27 06:11:32;;;;;;;20.10;10.63;;;19.30;91.90;;;;;;5012163;28;20022;-79
2021/07/27 06:14:00;;;;;;;19.77;10.25;;;19.30;91.90;;;;;;5011077;28;20037;-78
2021/07/27 06:16:26;;;;;;;16.70;8.38;;;19.40;91.90;;;;;;5027106;28;20449;-78
2021/07/27 06:18:52;;;;;;;18.70;9.98;;;19.40;91.90;;;;;;5011354;28;20092;-78
2021/07/27 06:21:18;;;;;;;20.38;11.05;;;19.40;91.80;;;;;;5011933;28;20374;-78
2021/07/27 06:23:45;;;;;;;21.33;11.45;;;19.40;91.70;;;;;;5011354;28;20033;-78
2021/07/27 06:26:11;;;;;;;19.10;9.60;;;19.50;91.70;;;;;;5011986;28;20030;-78
2021/07/27 06:28:37;;;;;;;20.10;10.13;;;19.50;91.60;;;;;;5027080;28;20368;-79
2021/07/27 06:31:10;;;;;;;21.88;11.68;;;19.60;91.50;;;;;;5009985;28;20022;-79
2021/07/27 06:33:37;;;;;;;23.27;11.38;;;19.60;91.50;;;;;;5010327;28;20581;-78
2021/07/27 06:36:02;;;;;;;20.63;11.10;;;19.60;91.40;;;;;;5011151;28;20466;-78
2021/07/27 06:38:28;;;;;;;23.25;10.85;;;19.60;91.40;;;;;;5011668;28;20071;-78
2021/07/27 06:40:53;;;;;;;23.05;10.82;;;19.60;91.60;;;;;;5011201;28;20079;-78
2021/07/27 06:43:19;;;;;;;18.38;9.60;;;19.70;91.30;;;;;;5010425;28;20022;-78
2021/07/27 06:45:54;;;;;;;17.40;8.77;;;19.80;91.30;;;;;;5026178;28;20018;-78
2021/07/27 06:48:21;;;;;;;19.30;9.32;;;19.90;91.20;;;;;;5011734;28;20486;-79
2021/07/27 06:50:46;;;;;;;19.15;9.30;;;20.00;91.10;;;;;;5010986;28;20034;-78
2021/07/27 06:53:12;;;;;;;19.98;9.23;;;20.00;91.00;;;;;;5011538;28;20053;-79
2021/07/27 06:55:38;;;;;;;21.48;11.93;;;20.10;90.90;;;;;;5026860;28;20511;-79
2021/07/27 06:58:03;;;;;;;19.48;9.90;;;20.10;90.70;;;;;;5014009;28;20018;-79
2021/07/27 07:00:29;;;;;;;17.92;8.98;;;20.10;90.80;;;;;;5030121;28;20470;-79
2021/07/27 07:02:55;;;;;;;20.75;11.18;;;20.10;90.80;;;;;;5014682;28;20056;-78
2021/07/27 07:05:20;;;;;;;23.02;10.23;;;20.20;90.50;;;;;;5015256;28;20053;-79
2021/07/27 07:07:46;;;;;;;20.27;11.05;;;20.20;90.40;;;;;;5015716;28;20046;-78
2021/07/27 07:10:12;;;;;;;17.63;10.57;;;20.30;90.30;;;;;;5014979;28;20030;-78
2021/07/27 07:12:38;;;;;;;23.38;12.60;;;20.30;90.20;;;;;;5030258;28;20033;-79
2021/07/27 07:15:04;;;;;;;20.25;9.82;;;20.30;90.10;;;;;;5029473;28;20390;-79
2021/07/27 07:17:30;;;;;;;19.90;10.88;;;20.20;90.20;;;;;;5014824;28;20482;-78
2021/07/27 07:19:56;;;;;;;19.35;11.18;;;20.30;90.10;;;;;;5013075;28;20102;-78
2021/07/27 07:22:22;;;;;;;20.15;11.52;;;20.30;90.00;;;;;;5029863;28;20041;-78
2021/07/27 07:24:48;;;;;;;19.17;9.73;;;20.40;90.00;;;;;;5029338;28;20021;-78
2021/07/27 07:27:14;;;;;;;21.00;10.57;;;20.50;89.80;;;;;;5014768;28;20101;-78
2021/07/27 07:29:40;;;;;;;18.92;10.45;;;20.50;89.40;;;;;;5013327;28;20018;-78
2021/07/27 07:32:06;;;;;;;20.17;12.02;;;20.50;89.10;;;;;;5029066;28;20053;-77
2021/07/27 07:34:32;;;;;;;19.60;11.30;;;20.50;88.90;;;;;;5013290;28;20026;-78
2021/07/27 07:36:58;;;;;;;20.20;10.68;;;20.50;89.80;;;;;;5012762;28;20032;-77
2021/07/27 07:39:24;;;;;;;22.23;10.23;;;20.50;89.40;;;;;;5013201;28;20022;-77
2021/07/27 07:41:50;;;;;;;15.23;9.00;;;20.50;89.50;;;;;;5029056;28;20474;-77
2021/07/27 07:44:15;;;;;;;21.95;11.70;;;20.50;89.50;;;;;;5029602;28;20026;-77
2021/07/27 07:46:42;;;;;;;22.08;12.05;;;20.60;89.30;;;;;;5014231;28;20029;-77
2021/07/27 07:49:07;;;;;;;19.27;10.88;;;20.60;89.10;;;;;;5028834;28;20032;-77
2021/07/27 07:51:35;;;;;;;18.80;10.55;;;20.70;89.70;;;;;;5012972;28;20033;-77
2021/07/27 07:54:01;;;;;;;20.38;9.38;;;20.80;89.20;;;;;;5013539;28;20026;-78
2021/07/27 07:56:27;;;;;;;20.80;11.35;;;20.80;89.10;;;;;;5029330;28;20188;-77
2021/07/27 07:58:52;;;;;;;20.45;10.65;;;20.80;88.90;;;;;;5028181;28;20137;-78
2021/07/27 08:01:18;;;;;;;19.10;9.75;;;20.90;88.80;;;;;;5013909;28;20034;-77
2021/07/27 08:03:44;;;;;;;18.17;9.05;;;21.00;88.60;;;;;;5014149;28;20112;-77
2021/07/27 08:06:10;;;;;;;20.30;11.10;;;21.10;88.40;;;;;;5028572;28;20076;-78
2021/07/27 08:08:38;;;;;;;21.80;11.82;;;21.10;88.40;;;;;;5012211;28;20026;-78
2021/07/27 08:11:04;;;;;;;19.92;10.60;;;21.10;88.00;;;;;;5011916;28;20100;-77
2021/07/27 08:13:31;;;;;;;19.75;11.27;;;21.10;88.20;;;;;;5013778;28;20030;-78
2021/07/27 08:15:56;;;;;;;18.95;10.23;;;21.10;88.20;;;;;;5028092;28;20033;-78
2021/07/27 08:18:22;;;;;;;20.05;11.48;;;21.10;88.30;;;;;;5013693;28;20036;-78
2021/07/27 08:20:48;;;;;;;18.92;11.23;;;21.00;88.20;;;;;;5028562;28;20030;-77
2021/07/27 08:23:13;;;;;;;17.75;9.27;;;20.90;88.50;;;;;;5028729;28;20080;-77
2021/07/27 08:25:39;;;;;;;18.73;10.40;;;20.90;88.70;;;;;;5028777;28;20025;-78
2021/07/27 08:28:05;;;;;;;19.52;10.57;;;20.90;88.70;;;;;;5013164;28;20026;-78
2021/07/27 08:30:30;;;;;;;17.70;9.73;;;20.90;88.80;;;;;;5013777;28;20069;-78
2021/07/27 08:32:56;;;;;;;21.70;10.02;;;21.00;88.70;;;;;;5027935;28;20030;-78
2021/07/27 08:35:23;;;;;;;18.55;10.32;;;21.00;88.60;;;;;;5013708;28;20032;-78
2021/07/27 08:37:50;;;;;;;22.83;12.40;;;21.10;88.30;;;;;;5012053;28;20129;-78
2021/07/27 08:40:17;;;;;;;22.45;11.98;;;21.20;88.00;;;;;;5013012;28;20474;-78
2021/07/27 08:42:45;;;;;;;19.27;10.55;;;21.30;88.00;;;;;;5028384;28;20018;-78
2021/07/27 08:45:12;;;;;;;21.70;10.90;;;21.40;87.90;;;;;;5011350;28;20059;-78
2021/07/27 08:47:47;;;;;;;19.50;10.02;;;21.40;87.80;;;;;;5013369;28;20029;-78
2021/07/27 08:50:14;;;;;;;16.70;9.05;;;21.50;87.80;;;;;;5012532;28;20022;-78
2021/07/27 08:52:39;;;;;;;19.63;10.95;;;21.60;87.60;;;;;;5028014;28;20018;-78
2021/07/27 08:55:09;;;;;;;22.63;11.55;;;21.70;87.30;;;;;;5011105;28;20026;-78
2021/07/27 08:57:35;;;;;;;22.85;11.73;;;21.70;87.10;;;;;;5028456;28;20060;-78
2021/07/27 09:00:01;;;;;;;20.20;11.57;;;21.80;87.10;;;;;;5027116;28;20492;-78
2021/07/27 09:02:30;;;;;;;20.25;10.13;;;21.80;87.10;;;;;;5011674;28;20030;-78
2021/07/27 09:05:10;;;;;;;21.23;11.00;;;21.80;87.10;;;;;;5012335;28;20022;-77
2021/07/27 09:07:37;;;;;;;17.50;9.90;;;21.70;87.20;;;;;;5012905;28;20022;-78
2021/07/27 09:10:13;;;;;;;18.63;10.40;;;21.70;87.50;;;;;;5010835;28;20416;-78
2021/07/27 09:12:49;;;;;;;19.90;11.10;;;21.60;87.40;;;;;;5012660;28;20037;-78
2021/07/27 09:15:16;;;;;;;18.88;11.65;;;21.60;87.20;;;;;;5027283;28;20030;-78
2021/07/27 09:17:52;;;;;;;20.00;10.73;;;21.50;87.50;;;;;;5027915;28;20112;-78
2021/07/27 09:20:44;;;;;;;19.88;11.30;;;21.50;87.70;;;;;;5010442;28;20040;-78
2021/07/27 09:23:16;;;;;;;21.42;11.13;;;21.50;87.70;;;;;;5027111;28;20030;-78
2021/07/27 09:26:01;;;;;;;22.95;12.18;;;21.50;87.30;;;;;;5012444;28;20101;-78
2021/07/27 09:28:27;;;;;;;21.85;11.30;;;21.60;87.00;;;;;;5012785;28;20152;-78
2021/07/27 09:30:59;;;;;;;19.05;10.63;;;21.50;86.90;;;;;;5011876;28;20029;-78
2021/07/27 09:33:33;;;;;;;15.98;9.50;;;21.60;87.10;;;;;;5010738;28;20026;-78
2021/07/27 09:35:59;;;;;;;20.05;10.55;;;21.70;86.60;;;;;;5011553;28;20414;-78
2021/07/27 09:38:34;;;;;;;16.30;9.63;;;21.80;86.20;;;;;;5012060;28;20021;-78
2021/07/27 09:41:01;;;;;;;14.05;8.88;;;21.90;85.70;;;;;;5026887;28;20378;-78
2021/07/27 09:43:28;;;;;;;15.38;8.65;;;22.00;85.30;;;;;;5012211;28;20117;-78
2021/07/27 09:45:55;;;;;;;15.40;9.23;;;22.20;84.70;;;;;;5026980;28;20026;-77
2021/07/27 09:48:22;;;;;;;13.52;8.30;;;22.30;83.60;;;;;;5027208;28;20451;-78
2021/07/27 09:50:49;;;;;;;14.95;8.93;;;22.40;82.60;;;;;;5027344;28;20017;-78
2021/07/27 09:53:15;;;;;;;14.32;7.60;;;22.40;82.10;;;;;;5011511;28;20030;-78
2021/07/27 09:55:42;;;;;;;13.23;8.05;;;22.40;82.30;;;;;;5027123;28;20465;-78
2021/07/27 09:58:08;;;;;;;12.02;7.82;;;22.40;81.30;;;;;;5011210;28;20116;-78
2021/07/27 10:00:57;;;;;;;14.95;9.30;;;22.40;81.40;;;;;;5011825;28;20103;-78
2021/07/27 10:03:25;;;;;;;13.52;8.43;;;22.40;80.80;;;;;;5026159;28;20046;-79
2021/07/27 10:05:57;;;;;;;15.80;9.45;;;22.50;80.30;;;;;;5027002;28;20028;-78
2021/07/27 10:08:39;;;;;;;15.38;8.35;;;22.50;79.60;;;;;;5011604;28;20104;-78
2021/07/27 10:11:09;;;;;;;14.07;8.65;;;22.60;79.60;;;;;;5011171;28;20099;-78
2021/07/27 10:13:36;;;;;;;10.70;7.07;;;22.70;79.30;;;;;;5011899;28;20066;-78
2021/07/27 10:16:03;;;;;;;10.68;6.57;;;22.80;78.80;;;;;;5011236;28;20026;-78
2021/07/27 10:18:31;;;;;;;13.07;7.45;;;22.80;78.90;;;;;;5026716;28;20026;-78
2021/07/27 10:21:25;;;;;;;12.57;7.85;;;22.90;78.10;;;;;;5011236;28;20113;-78
2021/07/27 10:23:55;;;;;;;11.15;6.55;;;22.90;77.00;;;;;;5011780;28;20069;-79
2021/07/27 10:26:28;;;;;;;9.68;5.97;;;22.90;77.00;;;;;;5011324;28;20137;-78
2021/07/27 10:28:55;;;;;;;12.15;7.65;;;22.90;77.30;;;;;;5026629;28;20033;-78
2021/07/27 10:31:37;;;;;;;10.70;6.07;;;22.80;76.50;;;;;;5028332;28;20034;-78
2021/07/27 10:34:05;;;;;;;14.30;7.53;;;22.80;77.30;;;;;;5015195;28;20022;-78
2021/07/27 10:36:39;;;;;;;12.45;7.10;;;22.80;76.20;;;;;;5030865;28;20497;-78
2021/07/27 10:39:06;;;;;;;10.15;6.25;;;22.80;76.70;;;;;;5030264;28;20022;-78
2021/07/27 10:41:35;;;;;;;14.80;7.72;;;22.80;76.70;;;;;;5015572;28;20057;-78
2021/07/27 10:44:22;;;;;;;12.68;7.75;;;22.80;76.10;;;;;;5014953;28;20076;-78
2021/07/27 10:46:49;;;;;;;14.70;7.78;;;22.80;76.60;;;;;;5015578;28;20488;-79
2021/07/27 10:49:22;;;;;;;17.73;9.05;;;22.80;76.90;;;;;;5014944;28;20026;-79
2021/07/27 10:51:50;;;;;;;12.13;7.28;;;22.70;76.90;;;;;;5030544;28;20018;-79
2021/07/27 10:54:19;;;;;;;11.63;7.90;;;22.80;77.10;;;;;;5014804;28;20052;-78
2021/07/27 10:57:05;;;;;;;11.45;6.88;;;22.90;77.00;;;;;;5030454;28;20121;-79
2021/07/27 10:59:32;;;;;;;11.27;7.57;;;22.90;77.10;;;;;;5030562;28;20042;-78
2021/07/27 11:01:59;;;;;;;13.57;8.07;;;22.90;76.80;;;;;;5030662;28;20377;-78
2021/07/27 11:04:30;;;;;;;11.88;7.35;;;22.80;76.90;;;;;;5030398;28;20021;-78
2021/07/27 11:07:16;;;;;;;13.35;8.70;;;22.80;77.40;;;;;;5015472;28;20474;-78
2021/07/27 11:09:56;;;;;;;15.13;9.15;;;22.80;77.10;;;;;;5030435;28;20045;-78
2021/07/27 11:12:38;;;;;;;11.60;7.88;;;22.70;77.30;;;;;;5014374;28;20095;-79
2021/07/27 11:15:19;;;;;;;11.23;7.70;;;22.70;77.90;;;;;;5014395;28;20069;-78
2021/07/27 11:17:49;;;;;;;12.23;7.72;;;22.80;78.00;;;;;;5030012;28;20026;-78
2021/07/27 11:20:24;;;;;;;13.93;8.38;;;22.80;77.60;;;;;;5029422;28;20363;-78
2021/07/27 11:22:55;;;;;;;14.43;8.15;;;22.80;77.50;;;;;;5029854;28;20022;-78
2021/07/27 11:25:23;;;;;;;13.93;7.88;;;22.90;77.20;;;;;;5028961;28;20131;-78
2021/07/27 11:27:50;;;;;;;11.73;8.02;;;23.10;77.10;;;;;;5029823;28;20069;-78
2021/07/27 11:30:18;;;;;;;14.70;8.88;;;23.40;76.70;;;;;;5014326;28;20022;-78
2021/07/27 11:32:49;;;;;;;12.30;7.45;;;23.50;76.20;;;;;;5014540;28;20030;-78
2021/07/27 11:35:17;;;;;;;14.43;8.85;;;23.50;75.90;;;;;;5014008;28;20029;-78
2021/07/27 11:37:44;;;;;;;11.95;7.63;;;23.50;75.70;;;;;;5029702;28;20068;-78
2021/07/27 11:40:24;;;;;;;14.18;8.20;;;23.40;75.80;;;;;;5028996;28;20079;-78
2021/07/27 11:43:05;;;;;;;12.52;8.48;;;23.20;75.90;;;;;;5013436;28;20030;-79
2021/07/27 11:45:38;;;;;;;10.48;4.40;;;23.00;76.10;;;;;;5014382;28;20045;-77
2021/07/27 11:48:05;;;;;;;10.60;3.15;;;22.50;84.70;;;;;;5028830;28;20117;-76
2021/07/27 11:50:38;;;;;;;6.80;2.80;;;21.20;92.40;;;;;;5013782;28;20335;-76
2021/07/27 11:53:24;;;;;;;4.97;2.65;;;20.20;94.70;;;;;;5014017;28;20084;-78
2021/07/27 11:55:50;;;;;;;4.63;2.38;;;19.30;95.60;;;;;;5012938;28;20140;-75
2021/07/27 11:58:27;;;;;;;5.38;2.33;;;19.00;96.50;;;;;;5028700;28;20125;-75
2021/07/27 12:00:57;;;;;;;6.43;2.88;;;18.90;97.10;;;;;;5029184;28;20077;-76
2021/07/27 12:03:24;;;;;;;5.65;2.85;;;18.70;97.50;;;;;;5028521;28;20757;-77
2021/07/27 12:05:51;;;;;;;4.47;2.45;;;18.60;97.80;;;;;;5029346;28;20031;-76
2021/07/27 12:08:17;;;;;;;4.32;2.25;;;18.50;98.10;;;;;;5028564;28;20026;-75
2021/07/27 12:10:43;;;;;;;5.18;2.20;;;18.40;98.20;;;;;;5012597;28;20429;-75
2021/07/27 12:13:08;;;;;;;3.85;2.72;;;18.50;98.30;;;;;;5028418;28;20065;-76
2021/07/27 12:15:34;;;;;;;4.97;2.70;;;18.60;98.40;;;;;;5029127;28;20109;-76
2021/07/27 12:18:00;;;;;;;4.90;2.20;;;18.70;98.20;;;;;;5028996;28;20481;-74
2021/07/27 12:20:25;;;;;;;4.15;1.88;;;18.80;98.10;;;;;;5028369;28;20037;-74
2021/07/27 12:22:51;;;;;;;4.30;1.98;;;18.80;98.40;;;;;;5029021;28;20045;-74
2021/07/27 12:25:17;;;;;;;5.13;1.92;;;18.90;98.40;;;;;;5028177;28;20056;-75
2021/07/27 12:27:44;;;;;;;4.70;2.63;;;19.10;98.30;;;;;;5028843;28;20028;-75
2021/07/27 12:30:11;;;;;;;5.07;2.60;;;19.20;98.30;;;;;;5028205;28;20156;-75
2021/07/27 12:32:37;;;;;;;4.30;2.15;;;19.30;98.20;;;;;;5028685;28;20018;-76
2021/07/27 12:35:03;;;;;;;5.53;2.33;;;19.40;98.10;;;;;;5028665;28;20030;-75
2021/07/27 12:37:29;;;;;;;4.25;2.40;;;19.40;98.10;;;;;;5012828;28;20032;-74
2021/07/27 12:39:54;;;;;;;4.72;2.47;;;19.50;98.20;;;;;;5028510;28;20029;-74
2021/07/27 12:42:21;;;;;;;6.30;2.70;;;19.50;98.10;;;;;;5027842;28;20022;-75
2021/07/27 12:44:47;;;;;;;4.78;2.78;;;19.60;97.90;;;;;;5013097;28;20026;-75
2021/07/27 12:47:12;;;;;;;7.60;2.95;;;19.60;97.90;;;;;;5012656;28;20048;-74
2021/07/27 12:49:38;;;;;;;5.00;2.50;;;19.60;97.80;;;;;;5013132;28;20018;-75
2021/07/27 12:52:09;;;;;;;4.20;2.35;;;19.70;97.70;;;;;;5028333;28;20448;-75
2021/07/27 12:54:38;;;;;;;5.55;2.50;;;19.90;97.50;;;;;;5028441;28;20021;-74
2021/07/27 12:57:04;;;;;;;4.07;2.20;;;20.10;97.40;;;;;;5013164;28;20026;-75
2021/07/27 12:59:31;;;;;;;5.50;2.50;;;20.10;97.30;;;;;;5012299;28;20045;-75